Clinton, Tennessee
Current Conditions -  °F | °C
As of 2:53 AM on Monday 24 Nov 2014 (Local Time) from KOQT Reporting Station
Overcast Overcast  
Wind Chill: 62°   Ceiling: 2500
Heat Index: 62°   Visibility: 10mi
Dew Point: 55°   Wind: 12mph
Humidity: 78%   Direction: 200°SSW
Pressure: 29.63"   Gusts: 18mph
Location:  36.1°N, 84.13°W
Report Text: KOQT 240753Z AUTO 20010G16KT 10SM OVC025 17/13 A2963 RMK AO2 SLP030 T01670128
Loading
Personal Weather Stations






























Interactive Weather Map New forecast layout! Learn more

10-Day Weather Forecast

Advertisements
Track Severe Weather on mobile